sensor_id;sensor_type;location;lat;lon;timestamp;P1;durP1;ratioP1;P2;durP2;ratioP2
79346;SDS011;68815;48.810;44.482;2023-04-25T00:00:45;5.4;;;1.9;;
79346;SDS011;68815;48.810;44.482;2023-04-25T00:03:46;4.6;;;1.7;;
79346;SDS011;68815;48.810;44.482;2023-04-25T00:06:48;4.7;;;1.9;;
79346;SDS011;68815;48.810;44.482;2023-04-25T00:09:49;4.1;;;1.8;;
79346;SDS011;68815;48.810;44.482;2023-04-25T00:12:51;6;;;1.7;;
79346;SDS011;68815;48.810;44.482;2023-04-25T00:15:54;5.9;;;1.8;;
79346;SDS011;68815;48.810;44.482;2023-04-25T00:18:56;5.3;;;1.7;;
79346;SDS011;68815;48.810;44.482;2023-04-25T00:21:57;4.9;;;1.8;;
79346;SDS011;68815;48.810;44.482;2023-04-25T00:24:59;6.6;;;2.1;;
79346;SDS011;68815;48.810;44.482;2023-04-25T00:28:01;4.6;;;2;;
79346;SDS011;68815;48.810;44.482;2023-04-25T00:31:03;4;;;1.7;;
79346;SDS011;68815;48.810;44.482;2023-04-25T00:34:05;4.7;;;1.6;;
79346;SDS011;68815;48.810;44.482;2023-04-25T00:37:07;4.7;;;2.1;;
79346;SDS011;68815;48.810;44.482;2023-04-25T00:40:09;4.5;;;1.8;;
79346;SDS011;68815;48.810;44.482;2023-04-25T00:43:11;5;;;1.6;;
79346;SDS011;68815;48.810;44.482;2023-04-25T00:46:12;6.6;;;2;;
79346;SDS011;68815;48.810;44.482;2023-04-25T00:49:14;5.6;;;1.8;;
79346;SDS011;68815;48.810;44.482;2023-04-25T00:52:15;5.4;;;1.9;;
79346;SDS011;68815;48.810;44.482;2023-04-25T00:55:17;5.4;;;2.1;;
79346;SDS011;68815;48.810;44.482;2023-04-25T00:58:18;4.9;;;2;;
79346;SDS011;68815;48.810;44.482;2023-04-25T01:01:20;5.2;;;1.9;;
79346;SDS011;68815;48.810;44.482;2023-04-25T01:04:22;4.1;;;2;;
79346;SDS011;68815;48.810;44.482;2023-04-25T01:07:24;5.2;;;2;;
79346;SDS011;68815;48.810;44.482;2023-04-25T01:10:25;6.9;;;1.9;;
79346;SDS011;68815;48.810;44.482;2023-04-25T01:13:27;4.3;;;1.8;;
79346;SDS011;68815;48.810;44.482;2023-04-25T01:16:29;5.8;;;2;;
79346;SDS011;68815;48.810;44.482;2023-04-25T01:19:31;6.1;;;2;;
79346;SDS011;68815;48.810;44.482;2023-04-25T01:22:33;5;;;1.6;;
79346;SDS011;68815;48.810;44.482;2023-04-25T01:25:35;4.4;;;1.8;;
79346;SDS011;68815;48.810;44.482;2023-04-25T01:28:38;4.8;;;2;;
79346;SDS011;68815;48.810;44.482;2023-04-25T01:31:41;7;;;2.2;;
79346;SDS011;68815;48.810;44.482;2023-04-25T01:34:43;6.3;;;2.1;;
79346;SDS011;68815;48.810;44.482;2023-04-25T01:37:44;6.6;;;2.1;;
79346;SDS011;68815;48.810;44.482;2023-04-25T01:40:46;5.6;;;2;;
79346;SDS011;68815;48.810;44.482;2023-04-25T01:43:50;4.8;;;2.1;;
79346;SDS011;68815;48.810;44.482;2023-04-25T01:46:53;5.2;;;2.1;;
79346;SDS011;68815;48.810;44.482;2023-04-25T01:49:54;7;;;2.2;;
79346;SDS011;68815;48.810;44.482;2023-04-25T01:52:57;6.4;;;2;;
79346;SDS011;68815;48.810;44.482;2023-04-25T01:55:58;7.3;;;2.4;;
79346;SDS011;68815;48.810;44.482;2023-04-25T01:59:00;5.4;;;2;;
79346;SDS011;68815;48.810;44.482;2023-04-25T02:02:02;6.8;;;2.2;;
79346;SDS011;68815;48.810;44.482;2023-04-25T02:05:04;4.9;;;2;;
79346;SDS011;68815;48.810;44.482;2023-04-25T02:08:06;7;;;2.2;;
79346;SDS011;68815;48.810;44.482;2023-04-25T02:11:08;4.2;;;2.1;;
79346;SDS011;68815;48.810;44.482;2023-04-25T02:14:30;6.7;;;2.1;;
79346;SDS011;68815;48.810;44.482;2023-04-25T02:17:32;5.3;;;2.1;;
79346;SDS011;68815;48.810;44.482;2023-04-25T02:20:34;6.1;;;2.2;;
79346;SDS011;68815;48.810;44.482;2023-04-25T02:23:35;6.8;;;2.2;;
79346;SDS011;68815;48.810;44.482;2023-04-25T02:26:37;5.7;;;2.3;;
79346;SDS011;68815;48.810;44.482;2023-04-25T02:29:38;7.7;;;2.7;;
79346;SDS011;68815;48.810;44.482;2023-04-25T02:32:40;9.2;;;2.8;;
79346;SDS011;68815;48.810;44.482;2023-04-25T02:35:42;10.3;;;3;;
79346;SDS011;68815;48.810;44.482;2023-04-25T02:38:44;8.1;;;3;;
79346;SDS011;68815;48.810;44.482;2023-04-25T02:41:45;7.2;;;3;;
79346;SDS011;68815;48.810;44.482;2023-04-25T02:44:47;9.2;;;3;;
79346;SDS011;68815;48.810;44.482;2023-04-25T02:47:48;6.5;;;2.3;;
79346;SDS011;68815;48.810;44.482;2023-04-25T02:50:50;7.9;;;2.6;;
79346;SDS011;68815;48.810;44.482;2023-04-25T02:53:51;7.3;;;2.2;;
79346;SDS011;68815;48.810;44.482;2023-04-25T02:56:53;6.9;;;2.1;;
79346;SDS011;68815;48.810;44.482;2023-04-25T02:59:54;7.4;;;2.4;;
79346;SDS011;68815;48.810;44.482;2023-04-25T03:02:56;13.6;;;2.9;;
79346;SDS011;68815;48.810;44.482;2023-04-25T03:05:57;13.3;;;2.8;;
79346;SDS011;68815;48.810;44.482;2023-04-25T03:08:59;11.8;;;3.2;;
79346;SDS011;68815;48.810;44.482;2023-04-25T03:12:00;5.8;;;2.6;;
79346;SDS011;68815;48.810;44.482;2023-04-25T03:15:03;8.1;;;2.3;;
79346;SDS011;68815;48.810;44.482;2023-04-25T03:18:07;8;;;2.6;;
79346;SDS011;68815;48.810;44.482;2023-04-25T03:21:09;8.2;;;2.7;;
79346;SDS011;68815;48.810;44.482;2023-04-25T03:24:10;15.5;;;3.9;;
79346;SDS011;68815;48.810;44.482;2023-04-25T03:27:12;9.7;;;3.3;;
79346;SDS011;68815;48.810;44.482;2023-04-25T03:30:14;11.2;;;3.6;;
79346;SDS011;68815;48.810;44.482;2023-04-25T03:33:15;16.7;;;6;;
79346;SDS011;68815;48.810;44.482;2023-04-25T03:36:17;12.5;;;3.5;;
79346;SDS011;68815;48.810;44.482;2023-04-25T03:39:18;7.1;;;2.9;;
79346;SDS011;68815;48.810;44.482;2023-04-25T03:42:25;10.6;;;3.5;;
79346;SDS011;68815;48.810;44.482;2023-04-25T03:45:28;9.1;;;3.5;;
79346;SDS011;68815;48.810;44.482;2023-04-25T03:48:30;10.5;;;4.3;;
79346;SDS011;68815;48.810;44.482;2023-04-25T03:51:31;9.2;;;4.1;;
79346;SDS011;68815;48.810;44.482;2023-04-25T03:54:33;11.2;;;4.3;;
79346;SDS011;68815;48.810;44.482;2023-04-25T03:57:35;9.8;;;3.7;;
79346;SDS011;68815;48.810;44.482;2023-04-25T04:00:36;7.9;;;3;;
79346;SDS011;68815;48.810;44.482;2023-04-25T04:03:38;6.4;;;2.5;;
79346;SDS011;68815;48.810;44.482;2023-04-25T04:06:39;8.2;;;2.6;;
79346;SDS011;68815;48.810;44.482;2023-04-25T04:09:41;8.7;;;2.6;;
79346;SDS011;68815;48.810;44.482;2023-04-25T04:12:43;7.3;;;3.2;;
79346;SDS011;68815;48.810;44.482;2023-04-25T04:15:45;8.9;;;2.7;;
79346;SDS011;68815;48.810;44.482;2023-04-25T04:18:46;7.2;;;2.6;;
79346;SDS011;68815;48.810;44.482;2023-04-25T04:21:48;7.6;;;2.6;;
79346;SDS011;68815;48.810;44.482;2023-04-25T04:28:21;9.1;;;3.6;;
79346;SDS011;68815;48.810;44.482;2023-04-25T04:31:22;9;;;3.6;;
79346;SDS011;68815;48.810;44.482;2023-04-25T04:34:24;9.6;;;3.7;;
79346;SDS011;68815;48.810;44.482;2023-04-25T04:40:52;10.9;;;4.1;;
79346;SDS011;68815;48.810;44.482;2023-04-25T04:47:25;10;;;4.5;;
79346;SDS011;68815;48.810;44.482;2023-04-25T04:50:27;10;;;4.2;;
79346;SDS011;68815;48.810;44.482;2023-04-25T04:53:29;12;;;4.1;;
79346;SDS011;68815;48.810;44.482;2023-04-25T05:00:02;10.4;;;3.8;;
79346;SDS011;68815;48.810;44.482;2023-04-25T05:03:07;9.9;;;3.2;;
79346;SDS011;68815;48.810;44.482;2023-04-25T05:06:08;11.4;;;3.6;;
79346;SDS011;68815;48.810;44.482;2023-04-25T05:09:09;7.2;;;3.3;;
79346;SDS011;68815;48.810;44.482;2023-04-25T05:12:11;11.3;;;3.7;;
79346;SDS011;68815;48.810;44.482;2023-04-25T05:15:12;7.6;;;3.2;;
79346;SDS011;68815;48.810;44.482;2023-04-25T05:18:14;9.4;;;3.2;;
79346;SDS011;68815;48.810;44.482;2023-04-25T05:21:16;9.1;;;3.3;;
79346;SDS011;68815;48.810;44.482;2023-04-25T05:24:17;8;;;3.2;;
79346;SDS011;68815;48.810;44.482;2023-04-25T05:27:19;9.2;;;3.7;;
79346;SDS011;68815;48.810;44.482;2023-04-25T05:30:21;11.5;;;3.5;;
79346;SDS011;68815;48.810;44.482;2023-04-25T05:33:22;10.5;;;3.3;;
79346;SDS011;68815;48.810;44.482;2023-04-25T05:36:24;10.4;;;3;;
79346;SDS011;68815;48.810;44.482;2023-04-25T05:39:26;8.5;;;2.8;;
79346;SDS011;68815;48.810;44.482;2023-04-25T05:42:27;8.5;;;2.8;;
79346;SDS011;68815;48.810;44.482;2023-04-25T05:45:29;10.6;;;3;;
79346;SDS011;68815;48.810;44.482;2023-04-25T05:48:30;9.6;;;2.8;;
79346;SDS011;68815;48.810;44.482;2023-04-25T05:51:32;10.6;;;2.9;;
79346;SDS011;68815;48.810;44.482;2023-04-25T05:54:33;12.4;;;3.4;;
79346;SDS011;68815;48.810;44.482;2023-04-25T05:57:35;9.4;;;3;;
79346;SDS011;68815;48.810;44.482;2023-04-25T06:00:37;14.6;;;3.4;;
79346;SDS011;68815;48.810;44.482;2023-04-25T06:03:38;14.9;;;3.5;;
79346;SDS011;68815;48.810;44.482;2023-04-25T06:06:39;15.4;;;3.2;;
79346;SDS011;68815;48.810;44.482;2023-04-25T06:09:41;9.9;;;2.9;;
79346;SDS011;68815;48.810;44.482;2023-04-25T06:12:42;8.7;;;3;;
79346;SDS011;68815;48.810;44.482;2023-04-25T06:15:44;9.3;;;3.1;;
79346;SDS011;68815;48.810;44.482;2023-04-25T06:18:45;11.7;;;3.6;;
79346;SDS011;68815;48.810;44.482;2023-04-25T06:21:47;11.3;;;3.2;;
79346;SDS011;68815;48.810;44.482;2023-04-25T06:24:48;12.4;;;3.3;;
79346;SDS011;68815;48.810;44.482;2023-04-25T06:27:50;9.5;;;2.7;;
79346;SDS011;68815;48.810;44.482;2023-04-25T06:30:51;9.2;;;2.6;;
79346;SDS011;68815;48.810;44.482;2023-04-25T06:33:53;9.9;;;2.9;;
79346;SDS011;68815;48.810;44.482;2023-04-25T06:36:54;10.8;;;2.6;;
79346;SDS011;68815;48.810;44.482;2023-04-25T06:39:56;9.1;;;2.8;;
79346;SDS011;68815;48.810;44.482;2023-04-25T06:42:57;8.8;;;2.7;;
79346;SDS011;68815;48.810;44.482;2023-04-25T06:45:59;8;;;2.8;;
79346;SDS011;68815;48.810;44.482;2023-04-25T06:49:00;13.2;;;4.1;;
79346;SDS011;68815;48.810;44.482;2023-04-25T06:52:01;12.5;;;5.1;;
79346;SDS011;68815;48.810;44.482;2023-04-25T06:55:03;11.7;;;3.6;;
79346;SDS011;68815;48.810;44.482;2023-04-25T06:58:05;9.4;;;4.4;;
79346;SDS011;68815;48.810;44.482;2023-04-25T07:01:07;10.7;;;3.4;;
79346;SDS011;68815;48.810;44.482;2023-04-25T07:04:09;9.8;;;3.2;;
79346;SDS011;68815;48.810;44.482;2023-04-25T07:07:10;9.1;;;3.1;;
79346;SDS011;68815;48.810;44.482;2023-04-25T07:10:11;10.8;;;4.5;;
79346;SDS011;68815;48.810;44.482;2023-04-25T07:13:13;9.7;;;4.5;;
79346;SDS011;68815;48.810;44.482;2023-04-25T07:16:14;8.3;;;3.2;;
79346;SDS011;68815;48.810;44.482;2023-04-25T07:19:17;9.1;;;3.3;;
79346;SDS011;68815;48.810;44.482;2023-04-25T07:22:18;8.3;;;3.3;;
79346;SDS011;68815;48.810;44.482;2023-04-25T07:25:20;7.8;;;3.2;;
79346;SDS011;68815;48.810;44.482;2023-04-25T07:28:21;8.7;;;3.4;;
79346;SDS011;68815;48.810;44.482;2023-04-25T07:31:23;10.4;;;3.6;;
79346;SDS011;68815;48.810;44.482;2023-04-25T07:34:24;10.4;;;3.7;;
79346;SDS011;68815;48.810;44.482;2023-04-25T07:37:25;10.3;;;4;;
79346;SDS011;68815;48.810;44.482;2023-04-25T07:40:27;8.5;;;3.3;;
79346;SDS011;68815;48.810;44.482;2023-04-25T07:43:28;8.2;;;3.1;;
79346;SDS011;68815;48.810;44.482;2023-04-25T07:46:30;12.4;;;3.2;;
79346;SDS011;68815;48.810;44.482;2023-04-25T07:49:31;6.3;;;3.2;;
79346;SDS011;68815;48.810;44.482;2023-04-25T07:52:33;7.3;;;3;;
79346;SDS011;68815;48.810;44.482;2023-04-25T07:55:34;8.5;;;3.4;;
79346;SDS011;68815;48.810;44.482;2023-04-25T07:58:35;9.5;;;3.5;;
79346;SDS011;68815;48.810;44.482;2023-04-25T08:01:37;8.5;;;3.5;;
79346;SDS011;68815;48.810;44.482;2023-04-25T08:04:39;7;;;3.1;;
79346;SDS011;68815;48.810;44.482;2023-04-25T08:07:41;7.2;;;3.1;;
79346;SDS011;68815;48.810;44.482;2023-04-25T08:10:42;11.1;;;3.6;;
79346;SDS011;68815;48.810;44.482;2023-04-25T08:13:43;7.5;;;3.7;;
79346;SDS011;68815;48.810;44.482;2023-04-25T08:16:45;8.7;;;3.2;;
79346;SDS011;68815;48.810;44.482;2023-04-25T08:19:46;8.8;;;3.4;;
79346;SDS011;68815;48.810;44.482;2023-04-25T08:22:48;7.4;;;3.2;;
79346;SDS011;68815;48.810;44.482;2023-04-25T08:25:49;9.1;;;3.1;;
79346;SDS011;68815;48.810;44.482;2023-04-25T08:28:51;6.8;;;3.1;;
79346;SDS011;68815;48.810;44.482;2023-04-25T08:31:52;9.1;;;3;;
79346;SDS011;68815;48.810;44.482;2023-04-25T08:34:54;7.3;;;2.8;;
79346;SDS011;68815;48.810;44.482;2023-04-25T08:37:56;8.9;;;3.1;;
79346;SDS011;68815;48.810;44.482;2023-04-25T08:40:57;8.7;;;3;;
79346;SDS011;68815;48.810;44.482;2023-04-25T08:44:01;9.6;;;2.8;;
79346;SDS011;68815;48.810;44.482;2023-04-25T08:47:04;10.7;;;3;;
79346;SDS011;68815;48.810;44.482;2023-04-25T08:50:06;7.8;;;2.9;;
79346;SDS011;68815;48.810;44.482;2023-04-25T08:53:08;7.3;;;2.7;;
79346;SDS011;68815;48.810;44.482;2023-04-25T08:56:14;6.6;;;2.8;;
79346;SDS011;68815;48.810;44.482;2023-04-25T08:59:17;9.3;;;3.3;;
79346;SDS011;68815;48.810;44.482;2023-04-25T09:02:19;9.4;;;3;;
79346;SDS011;68815;48.810;44.482;2023-04-25T09:05:22;10.9;;;3;;
79346;SDS011;68815;48.810;44.482;2023-04-25T09:08:23;10.1;;;3.1;;
79346;SDS011;68815;48.810;44.482;2023-04-25T09:11:24;10.2;;;3.1;;
79346;SDS011;68815;48.810;44.482;2023-04-25T09:14:26;7.3;;;3.3;;
79346;SDS011;68815;48.810;44.482;2023-04-25T09:17:29;9.4;;;3.2;;
79346;SDS011;68815;48.810;44.482;2023-04-25T09:20:30;9.5;;;3.4;;
79346;SDS011;68815;48.810;44.482;2023-04-25T09:23:38;9.5;;;3.1;;
79346;SDS011;68815;48.810;44.482;2023-04-25T09:26:41;11;;;3.2;;
79346;SDS011;68815;48.810;44.482;2023-04-25T09:29:42;9.2;;;3.5;;
79346;SDS011;68815;48.810;44.482;2023-04-25T09:32:44;9.8;;;3.2;;
79346;SDS011;68815;48.810;44.482;2023-04-25T09:35:45;9.1;;;3.2;;
79346;SDS011;68815;48.810;44.482;2023-04-25T09:38:47;10.3;;;3.2;;
79346;SDS011;68815;48.810;44.482;2023-04-25T09:41:53;8.7;;;2.9;;
79346;SDS011;68815;48.810;44.482;2023-04-25T09:44:55;13;;;3.2;;
79346;SDS011;68815;48.810;44.482;2023-04-25T09:47:59;10.2;;;2.9;;
79346;SDS011;68815;48.810;44.482;2023-04-25T09:51:05;8.7;;;2.9;;
79346;SDS011;68815;48.810;44.482;2023-04-25T09:54:07;9.7;;;2.8;;
79346;SDS011;68815;48.810;44.482;2023-04-25T09:57:11;8.7;;;2.7;;
79346;SDS011;68815;48.810;44.482;2023-04-25T10:00:14;10.4;;;2.5;;
79346;SDS011;68815;48.810;44.482;2023-04-25T10:03:16;7.7;;;2.6;;
79346;SDS011;68815;48.810;44.482;2023-04-25T10:06:19;10.1;;;2.5;;
79346;SDS011;68815;48.810;44.482;2023-04-25T10:09:24;6.7;;;2.6;;
79346;SDS011;68815;48.810;44.482;2023-04-25T10:12:27;11.3;;;2.6;;
79346;SDS011;68815;48.810;44.482;2023-04-25T10:15:29;6.8;;;2.6;;
79346;SDS011;68815;48.810;44.482;2023-04-25T10:18:31;8.4;;;2.3;;
79346;SDS011;68815;48.810;44.482;2023-04-25T10:21:33;11.6;;;2.3;;
79346;SDS011;68815;48.810;44.482;2023-04-25T10:24:42;7;;;2.6;;
79346;SDS011;68815;48.810;44.482;2023-04-25T10:27:45;14.1;;;2.9;;
79346;SDS011;68815;48.810;44.482;2023-04-25T10:33:59;8.3;;;2.2;;
79346;SDS011;68815;48.810;44.482;2023-04-25T10:37:01;7.7;;;2.1;;
79346;SDS011;68815;48.810;44.482;2023-04-25T10:40:08;8.1;;;2.1;;
79346;SDS011;68815;48.810;44.482;2023-04-25T10:46:46;8.8;;;1.9;;
79346;SDS011;68815;48.810;44.482;2023-04-25T10:49:48;10.3;;;2;;
79346;SDS011;68815;48.810;44.482;2023-04-25T10:52:52;5.8;;;2;;
79346;SDS011;68815;48.810;44.482;2023-04-25T10:55:54;7.1;;;2.2;;
79346;SDS011;68815;48.810;44.482;2023-04-25T10:59:02;6.7;;;2.1;;
79346;SDS011;68815;48.810;44.482;2023-04-25T11:02:11;5.1;;;1.9;;
79346;SDS011;68815;48.810;44.482;2023-04-25T11:05:22;8.4;;;2.4;;
79346;SDS011;68815;48.810;44.482;2023-04-25T11:08:29;7.2;;;2.4;;
79346;SDS011;68815;48.810;44.482;2023-04-25T11:11:48;6.4;;;2.2;;
79346;SDS011;68815;48.810;44.482;2023-04-25T11:14:58;6.2;;;2.2;;
79346;SDS011;68815;48.810;44.482;2023-04-25T11:17:59;8.4;;;2.7;;
79346;SDS011;68815;48.810;44.482;2023-04-25T11:21:02;6.6;;;2.4;;
79346;SDS011;68815;48.810;44.482;2023-04-25T11:24:04;6.2;;;2.3;;
79346;SDS011;68815;48.810;44.482;2023-04-25T11:27:06;9.6;;;2.4;;
79346;SDS011;68815;48.810;44.482;2023-04-25T11:30:11;7.7;;;2.3;;
79346;SDS011;68815;48.810;44.482;2023-04-25T11:33:14;7.3;;;2.2;;
79346;SDS011;68815;48.810;44.482;2023-04-25T11:36:15;7.4;;;2.5;;
79346;SDS011;68815;48.810;44.482;2023-04-25T11:39:17;5.5;;;1.9;;
79346;SDS011;68815;48.810;44.482;2023-04-25T11:42:19;5.2;;;2.1;;
79346;SDS011;68815;48.810;44.482;2023-04-25T11:45:21;7.6;;;2.1;;
79346;SDS011;68815;48.810;44.482;2023-04-25T11:48:24;7;;;2.3;;
79346;SDS011;68815;48.810;44.482;2023-04-25T11:51:25;6;;;2.1;;
79346;SDS011;68815;48.810;44.482;2023-04-25T11:54:27;5.4;;;2;;
79346;SDS011;68815;48.810;44.482;2023-04-25T11:57:28;7.6;;;2.2;;
79346;SDS011;68815;48.810;44.482;2023-04-25T12:00:32;5.8;;;2;;
79346;SDS011;68815;48.810;44.482;2023-04-25T12:03:33;6.2;;;2.1;;
79346;SDS011;68815;48.810;44.482;2023-04-25T12:06:36;6.4;;;2.2;;
79346;SDS011;68815;48.810;44.482;2023-04-25T12:09:38;5.6;;;2;;
79346;SDS011;68815;48.810;44.482;2023-04-25T12:12:41;6.6;;;2.1;;
79346;SDS011;68815;48.810;44.482;2023-04-25T12:15:44;4.9;;;1.9;;
79346;SDS011;68815;48.810;44.482;2023-04-25T12:18:45;4.8;;;2.2;;
79346;SDS011;68815;48.810;44.482;2023-04-25T12:21:47;5.8;;;2.5;;
79346;SDS011;68815;48.810;44.482;2023-04-25T12:24:49;4.4;;;2;;
79346;SDS011;68815;48.810;44.482;2023-04-25T12:27:51;5.5;;;2.2;;
79346;SDS011;68815;48.810;44.482;2023-04-25T12:30:53;7.9;;;2.1;;
79346;SDS011;68815;48.810;44.482;2023-04-25T12:33:56;4.7;;;2.4;;
79346;SDS011;68815;48.810;44.482;2023-04-25T12:36:58;6;;;2.2;;
79346;SDS011;68815;48.810;44.482;2023-04-25T12:40:00;7.2;;;2.5;;
79346;SDS011;68815;48.810;44.482;2023-04-25T12:43:01;4.1;;;2.2;;
79346;SDS011;68815;48.810;44.482;2023-04-25T12:46:03;6.8;;;1.9;;
79346;SDS011;68815;48.810;44.482;2023-04-25T12:49:05;5.3;;;1.7;;
79346;SDS011;68815;48.810;44.482;2023-04-25T12:52:06;5.9;;;1.7;;
79346;SDS011;68815;48.810;44.482;2023-04-25T12:55:08;6.2;;;1.7;;
79346;SDS011;68815;48.810;44.482;2023-04-25T12:58:09;3.5;;;1.5;;
79346;SDS011;68815;48.810;44.482;2023-04-25T13:01:11;4.1;;;1.7;;
79346;SDS011;68815;48.810;44.482;2023-04-25T13:04:12;3.9;;;1.5;;
79346;SDS011;68815;48.810;44.482;2023-04-25T13:07:13;6;;;1.7;;
79346;SDS011;68815;48.810;44.482;2023-04-25T13:10:15;3.3;;;1.7;;
79346;SDS011;68815;48.810;44.482;2023-04-25T13:13:16;3.7;;;1.7;;
79346;SDS011;68815;48.810;44.482;2023-04-25T13:16:18;5;;;1.8;;
79346;SDS011;68815;48.810;44.482;2023-04-25T13:19:19;5.3;;;1.8;;
79346;SDS011;68815;48.810;44.482;2023-04-25T13:22:21;5.6;;;2.1;;
79346;SDS011;68815;48.810;44.482;2023-04-25T13:25:23;4.4;;;1.7;;
79346;SDS011;68815;48.810;44.482;2023-04-25T13:28:24;4.8;;;1.7;;
79346;SDS011;68815;48.810;44.482;2023-04-25T13:31:26;3.9;;;1.8;;
79346;SDS011;68815;48.810;44.482;2023-04-25T13:34:29;3.8;;;1.4;;
79346;SDS011;68815;48.810;44.482;2023-04-25T13:37:30;3.7;;;1.1;;
79346;SDS011;68815;48.810;44.482;2023-04-25T13:40:32;2.8;;;1;;
79346;SDS011;68815;48.810;44.482;2023-04-25T13:43:34;7;;;1.3;;
79346;SDS011;68815;48.810;44.482;2023-04-25T13:46:35;3.1;;;1.2;;
79346;SDS011;68815;48.810;44.482;2023-04-25T13:49:37;4.2;;;1.2;;
79346;SDS011;68815;48.810;44.482;2023-04-25T13:52:38;4.7;;;1;;
79346;SDS011;68815;48.810;44.482;2023-04-25T13:55:40;3.1;;;0.8;;
79346;SDS011;68815;48.810;44.482;2023-04-25T13:58:42;3.9;;;0.9;;
79346;SDS011;68815;48.810;44.482;2023-04-25T14:01:43;2.9;;;0.9;;
79346;SDS011;68815;48.810;44.482;2023-04-25T14:04:45;3.9;;;1.3;;
79346;SDS011;68815;48.810;44.482;2023-04-25T14:07:47;3.2;;;0.9;;
79346;SDS011;68815;48.810;44.482;2023-04-25T14:10:48;3.5;;;0.9;;
79346;SDS011;68815;48.810;44.482;2023-04-25T14:13:50;5.2;;;0.9;;
79346;SDS011;68815;48.810;44.482;2023-04-25T14:16:52;5;;;0.8;;
79346;SDS011;68815;48.810;44.482;2023-04-25T14:19:53;2.7;;;0.9;;
79346;SDS011;68815;48.810;44.482;2023-04-25T14:22:55;3.6;;;1.1;;
79346;SDS011;68815;48.810;44.482;2023-04-25T14:25:57;4;;;1;;
79346;SDS011;68815;48.810;44.482;2023-04-25T14:28:58;4.7;;;0.9;;
79346;SDS011;68815;48.810;44.482;2023-04-25T14:31:59;3.3;;;1;;
79346;SDS011;68815;48.810;44.482;2023-04-25T14:35:01;3.9;;;0.8;;
79346;SDS011;68815;48.810;44.482;2023-04-25T14:38:06;3.6;;;0.8;;
79346;SDS011;68815;48.810;44.482;2023-04-25T14:41:07;4.1;;;0.9;;
79346;SDS011;68815;48.810;44.482;2023-04-25T14:44:09;2.6;;;0.8;;
79346;SDS011;68815;48.810;44.482;2023-04-25T14:47:10;3.9;;;0.8;;
79346;SDS011;68815;48.810;44.482;2023-04-25T14:50:12;4.2;;;1.1;;
79346;SDS011;68815;48.810;44.482;2023-04-25T14:53:14;3.6;;;1;;
79346;SDS011;68815;48.810;44.482;2023-04-25T14:56:15;4;;;0.9;;
79346;SDS011;68815;48.810;44.482;2023-04-25T14:59:17;4.2;;;0.9;;
79346;SDS011;68815;48.810;44.482;2023-04-25T15:02:19;3.1;;;1.1;;
79346;SDS011;68815;48.810;44.482;2023-04-25T15:05:20;4;;;1.2;;
79346;SDS011;68815;48.810;44.482;2023-04-25T15:08:22;5.5;;;1.6;;
79346;SDS011;68815;48.810;44.482;2023-04-25T15:11:23;5.4;;;2.1;;
79346;SDS011;68815;48.810;44.482;2023-04-25T15:14:25;5.6;;;1.5;;
79346;SDS011;68815;48.810;44.482;2023-04-25T15:17:26;4.5;;;1.2;;
79346;SDS011;68815;48.810;44.482;2023-04-25T15:20:28;3.4;;;1.1;;
79346;SDS011;68815;48.810;44.482;2023-04-25T15:23:29;3.4;;;1;;
79346;SDS011;68815;48.810;44.482;2023-04-25T15:33:06;3.7;;;1.1;;
79346;SDS011;68815;48.810;44.482;2023-04-25T15:36:07;4.5;;;1.3;;
79346;SDS011;68815;48.810;44.482;2023-04-25T15:39:09;3.5;;;1.2;;
79346;SDS011;68815;48.810;44.482;2023-04-25T15:42:10;3.5;;;1.2;;
79346;SDS011;68815;48.810;44.482;2023-04-25T15:45:12;6.1;;;1.2;;
79346;SDS011;68815;48.810;44.482;2023-04-25T15:48:16;4.7;;;1.1;;
79346;SDS011;68815;48.810;44.482;2023-04-25T15:51:17;4.1;;;1.1;;
79346;SDS011;68815;48.810;44.482;2023-04-25T15:54:18;3.7;;;1.2;;
79346;SDS011;68815;48.810;44.482;2023-04-25T15:57:20;4.2;;;1;;
79346;SDS011;68815;48.810;44.482;2023-04-25T16:00:22;3.3;;;1.1;;
79346;SDS011;68815;48.810;44.482;2023-04-25T16:03:29;4.7;;;1.1;;
79346;SDS011;68815;48.810;44.482;2023-04-25T16:06:31;4.1;;;1.2;;
79346;SDS011;68815;48.810;44.482;2023-04-25T16:09:32;4;;;1.2;;
79346;SDS011;68815;48.810;44.482;2023-04-25T16:12:34;3.8;;;1.3;;
79346;SDS011;68815;48.810;44.482;2023-04-25T16:15:36;4.2;;;1.3;;
79346;SDS011;68815;48.810;44.482;2023-04-25T16:18:37;2.9;;;1.2;;
79346;SDS011;68815;48.810;44.482;2023-04-25T16:21:39;4.5;;;1.3;;
79346;SDS011;68815;48.810;44.482;2023-04-25T16:24:40;3.9;;;1.3;;
79346;SDS011;68815;48.810;44.482;2023-04-25T16:27:42;6.3;;;3.1;;
79346;SDS011;68815;48.810;44.482;2023-04-25T16:30:44;4.5;;;1.3;;
79346;SDS011;68815;48.810;44.482;2023-04-25T16:33:45;4.9;;;1.9;;
79346;SDS011;68815;48.810;44.482;2023-04-25T16:36:47;4.7;;;1.3;;
79346;SDS011;68815;48.810;44.482;2023-04-25T16:39:48;3.5;;;0.9;;
79346;SDS011;68815;48.810;44.482;2023-04-25T16:42:49;3.7;;;1.1;;
79346;SDS011;68815;48.810;44.482;2023-04-25T16:45:51;3.6;;;1;;
79346;SDS011;68815;48.810;44.482;2023-04-25T16:48:52;5.1;;;1.3;;
79346;SDS011;68815;48.810;44.482;2023-04-25T16:51:54;4.5;;;1;;
79346;SDS011;68815;48.810;44.482;2023-04-25T16:54:55;3.2;;;1.1;;
79346;SDS011;68815;48.810;44.482;2023-04-25T16:57:57;3.2;;;1;;
79346;SDS011;68815;48.810;44.482;2023-04-25T17:00:58;3.3;;;1.4;;
79346;SDS011;68815;48.810;44.482;2023-04-25T17:04:01;3.5;;;1.3;;
79346;SDS011;68815;48.810;44.482;2023-04-25T17:07:02;3;;;1.2;;
79346;SDS011;68815;48.810;44.482;2023-04-25T17:10:04;3.9;;;1.4;;
79346;SDS011;68815;48.810;44.482;2023-04-25T17:13:06;3.6;;;1.2;;
79346;SDS011;68815;48.810;44.482;2023-04-25T17:16:08;4.4;;;1.4;;
79346;SDS011;68815;48.810;44.482;2023-04-25T17:19:09;3.6;;;1.2;;
79346;SDS011;68815;48.810;44.482;2023-04-25T17:22:11;4.1;;;1.3;;
79346;SDS011;68815;48.810;44.482;2023-04-25T17:25:12;3.5;;;1.3;;
79346;SDS011;68815;48.810;44.482;2023-04-25T17:28:14;4;;;1.3;;
79346;SDS011;68815;48.810;44.482;2023-04-25T17:31:16;5.5;;;1.4;;
79346;SDS011;68815;48.810;44.482;2023-04-25T17:34:17;4;;;1.4;;
79346;SDS011;68815;48.810;44.482;2023-04-25T17:37:18;3.4;;;1.1;;
79346;SDS011;68815;48.810;44.482;2023-04-25T17:40:20;4.5;;;1.3;;
79346;SDS011;68815;48.810;44.482;2023-04-25T17:43:22;4.3;;;1.3;;
79346;SDS011;68815;48.810;44.482;2023-04-25T17:46:24;4;;;1.4;;
79346;SDS011;68815;48.810;44.482;2023-04-25T17:49:25;4.8;;;1.8;;
79346;SDS011;68815;48.810;44.482;2023-04-25T17:52:27;6.4;;;2;;
79346;SDS011;68815;48.810;44.482;2023-04-25T17:55:29;4.3;;;1.8;;
79346;SDS011;68815;48.810;44.482;2023-04-25T17:58:30;6.2;;;1.8;;
79346;SDS011;68815;48.810;44.482;2023-04-25T18:01:32;6.4;;;1.8;;
79346;SDS011;68815;48.810;44.482;2023-04-25T18:04:35;5.1;;;2.2;;
79346;SDS011;68815;48.810;44.482;2023-04-25T18:07:36;5.6;;;2;;
79346;SDS011;68815;48.810;44.482;2023-04-25T18:10:38;6.6;;;1.9;;
79346;SDS011;68815;48.810;44.482;2023-04-25T18:13:40;5.9;;;2;;
79346;SDS011;68815;48.810;44.482;2023-04-25T18:16:42;4.7;;;1.8;;
79346;SDS011;68815;48.810;44.482;2023-04-25T18:19:44;5.9;;;1.7;;
79346;SDS011;68815;48.810;44.482;2023-04-25T18:22:45;5.5;;;1.9;;
79346;SDS011;68815;48.810;44.482;2023-04-25T18:25:47;5.3;;;1.7;;
79346;SDS011;68815;48.810;44.482;2023-04-25T18:28:48;5.2;;;1.8;;
79346;SDS011;68815;48.810;44.482;2023-04-25T18:31:49;4.1;;;1.5;;
79346;SDS011;68815;48.810;44.482;2023-04-25T18:34:51;4.1;;;1.5;;
79346;SDS011;68815;48.810;44.482;2023-04-25T18:37:52;5.3;;;1.7;;
79346;SDS011;68815;48.810;44.482;2023-04-25T18:40:54;5.7;;;1.8;;
79346;SDS011;68815;48.810;44.482;2023-04-25T18:43:56;4.6;;;1.6;;
79346;SDS011;68815;48.810;44.482;2023-04-25T18:46:57;4.6;;;1.9;;
79346;SDS011;68815;48.810;44.482;2023-04-25T18:49:59;6.1;;;1.7;;
79346;SDS011;68815;48.810;44.482;2023-04-25T18:53:00;6.1;;;1.9;;
79346;SDS011;68815;48.810;44.482;2023-04-25T18:56:02;5.2;;;1.9;;
79346;SDS011;68815;48.810;44.482;2023-04-25T18:59:03;5.7;;;1.7;;
79346;SDS011;68815;48.810;44.482;2023-04-25T19:02:05;4.2;;;1.7;;
79346;SDS011;68815;48.810;44.482;2023-04-25T19:05:07;3.9;;;1.6;;